ENBL/FDE METAR and TAF weather

Enter ICAO airport designator
Station Type Date Time Source
ENBL METAR 2019/06/15 14:20 UTC NOAA

ENBL 151420Z 13005KT CAVOK 23/05 Q1015


Station Type Date Time Source
ENBL Decoded METAR 2019/06/15 14:20 UTC NOAA

Forde / Bringeland, Norway (ENBL) 61-27N 005-52E
Jun 15, 2019 - 10:20 AM EDT / 2019.06.15 1420 UTC
Wind: from the SE (130 degrees) at 6 MPH (5 KT):0
Visibility: greater than 7 mile(s):0
Temperature: 73 F (23 C)
Dew Point: 41 F (5 C)
Relative Humidity: 31%
Pressure (altimeter): 29.97 in. Hg (1015 hPa)
ob: ENBL 151420Z 13005KT CAVOK 23/05 Q1015
cycle: 14

Station Type Date Time Source
ENBL TAF UTC NOAA

Error!

Example: see airport list